sensor_id;sensor_type;location;lat;lon;timestamp;temperature;humidity
25923;DHT22;13725;51.170;4.442;2023-08-24T00:00:40;20.80;99.90
25923;DHT22;13725;51.170;4.442;2023-08-24T00:03:06;20.80;99.90
25923;DHT22;13725;51.170;4.442;2023-08-24T00:05:35;20.80;99.90
25923;DHT22;13725;51.170;4.442;2023-08-24T00:08:09;20.80;99.90
25923;DHT22;13725;51.170;4.442;2023-08-24T00:10:35;20.80;99.90
25923;DHT22;13725;51.170;4.442;2023-08-24T00:13:02;20.70;99.90
25923;DHT22;13725;51.170;4.442;2023-08-24T00:15:28;20.70;99.90
25923;DHT22;13725;51.170;4.442;2023-08-24T00:17:54;20.60;99.90
25923;DHT22;13725;51.170;4.442;2023-08-24T00:20:20;20.50;99.90
25923;DHT22;13725;51.170;4.442;2023-08-24T00:22:46;20.60;99.90
25923;DHT22;13725;51.170;4.442;2023-08-24T00:25:12;20.60;99.90
25923;DHT22;13725;51.170;4.442;2023-08-24T00:27:39;20.50;99.90
25923;DHT22;13725;51.170;4.442;2023-08-24T00:30:06;20.60;99.90
25923;DHT22;13725;51.170;4.442;2023-08-24T00:32:36;20.50;99.90
25923;DHT22;13725;51.170;4.442;2023-08-24T00:35:03;20.60;99.90
25923;DHT22;13725;51.170;4.442;2023-08-24T00:37:30;20.60;99.90
25923;DHT22;13725;51.170;4.442;2023-08-24T00:39:55;20.60;99.90
25923;DHT22;13725;51.170;4.442;2023-08-24T00:42:21;20.60;99.90
25923;DHT22;13725;51.170;4.442;2023-08-24T00:44:51;20.60;99.90
25923;DHT22;13725;51.170;4.442;2023-08-24T00:47:17;20.60;99.90
25923;DHT22;13725;51.170;4.442;2023-08-24T00:49:43;20.70;99.90
25923;DHT22;13725;51.170;4.442;2023-08-24T00:52:10;20.70;99.90
25923;DHT22;13725;51.170;4.442;2023-08-24T00:54:38;20.70;99.90
25923;DHT22;13725;51.170;4.442;2023-08-24T00:57:05;20.80;99.90
25923;DHT22;13725;51.170;4.442;2023-08-24T00:59:33;20.80;99.90
25923;DHT22;13725;51.170;4.442;2023-08-24T01:02:00;20.80;99.90
25923;DHT22;13725;51.170;4.442;2023-08-24T01:04:29;20.80;99.90
25923;DHT22;13725;51.170;4.442;2023-08-24T01:06:55;20.80;99.90
25923;DHT22;13725;51.170;4.442;2023-08-24T01:09:21;20.80;99.90
25923;DHT22;13725;51.170;4.442;2023-08-24T01:17:03;20.80;99.90
25923;DHT22;13725;51.170;4.442;2023-08-24T01:19:45;20.80;99.90
25923;DHT22;13725;51.170;4.442;2023-08-24T01:27:36;20.80;99.90
25923;DHT22;13725;51.170;4.442;2023-08-24T01:30:03;20.70;99.90
25923;DHT22;13725;51.170;4.442;2023-08-24T01:32:33;20.80;99.90
25923;DHT22;13725;51.170;4.442;2023-08-24T01:35:03;20.80;99.90
25923;DHT22;13725;51.170;4.442;2023-08-24T01:37:29;20.80;99.90
25923;DHT22;13725;51.170;4.442;2023-08-24T01:40:04;20.80;99.90
25923;DHT22;13725;51.170;4.442;2023-08-24T01:42:36;20.70;99.90
25923;DHT22;13725;51.170;4.442;2023-08-24T01:45:05;20.80;99.90
25923;DHT22;13725;51.170;4.442;2023-08-24T01:47:36;20.80;99.90
25923;DHT22;13725;51.170;4.442;2023-08-24T01:50:03;20.90;99.90
25923;DHT22;13725;51.170;4.442;2023-08-24T01:52:31;20.90;99.90
25923;DHT22;13725;51.170;4.442;2023-08-24T01:54:57;20.90;99.90
25923;DHT22;13725;51.170;4.442;2023-08-24T01:57:24;21.00;99.90
25923;DHT22;13725;51.170;4.442;2023-08-24T01:59:50;20.90;99.90
25923;DHT22;13725;51.170;4.442;2023-08-24T02:02:16;20.80;99.90
25923;DHT22;13725;51.170;4.442;2023-08-24T02:04:42;20.70;99.90
25923;DHT22;13725;51.170;4.442;2023-08-24T02:07:08;20.70;99.90
25923;DHT22;13725;51.170;4.442;2023-08-24T02:09:34;20.70;99.90
25923;DHT22;13725;51.170;4.442;2023-08-24T02:11:59;20.70;99.90
25923;DHT22;13725;51.170;4.442;2023-08-24T02:14:25;20.60;99.90
25923;DHT22;13725;51.170;4.442;2023-08-24T02:16:52;20.50;99.90
25923;DHT22;13725;51.170;4.442;2023-08-24T02:19:18;20.40;99.90
25923;DHT22;13725;51.170;4.442;2023-08-24T02:21:44;20.10;99.90
25923;DHT22;13725;51.170;4.442;2023-08-24T02:24:10;19.80;99.90
25923;DHT22;13725;51.170;4.442;2023-08-24T02:26:36;19.50;99.90
25923;DHT22;13725;51.170;4.442;2023-08-24T02:29:01;19.30;99.90
25923;DHT22;13725;51.170;4.442;2023-08-24T02:31:28;19.20;99.90
25923;DHT22;13725;51.170;4.442;2023-08-24T02:33:56;19.20;99.90
25923;DHT22;13725;51.170;4.442;2023-08-24T02:36:22;19.20;99.90
25923;DHT22;13725;51.170;4.442;2023-08-24T02:38:48;19.10;99.90
25923;DHT22;13725;51.170;4.442;2023-08-24T02:41:14;19.10;99.90
25923;DHT22;13725;51.170;4.442;2023-08-24T02:43:40;19.00;99.90
25923;DHT22;13725;51.170;4.442;2023-08-24T02:46:07;18.90;99.90
25923;DHT22;13725;51.170;4.442;2023-08-24T02:48:34;18.90;99.90
25923;DHT22;13725;51.170;4.442;2023-08-24T02:51:03;18.90;99.90
25923;DHT22;13725;51.170;4.442;2023-08-24T02:53:29;18.80;99.90
25923;DHT22;13725;51.170;4.442;2023-08-24T02:55:57;18.80;99.90
25923;DHT22;13725;51.170;4.442;2023-08-24T02:58:23;18.70;99.90
25923;DHT22;13725;51.170;4.442;2023-08-24T03:00:49;18.80;99.90
25923;DHT22;13725;51.170;4.442;2023-08-24T03:03:15;18.80;99.90
25923;DHT22;13725;51.170;4.442;2023-08-24T03:05:58;18.70;99.90
25923;DHT22;13725;51.170;4.442;2023-08-24T03:08:27;18.80;99.90
25923;DHT22;13725;51.170;4.442;2023-08-24T03:10:54;18.70;99.90
25923;DHT22;13725;51.170;4.442;2023-08-24T03:13:19;18.70;99.90
25923;DHT22;13725;51.170;4.442;2023-08-24T03:15:46;18.60;99.90
25923;DHT22;13725;51.170;4.442;2023-08-24T03:18:13;18.60;99.90
25923;DHT22;13725;51.170;4.442;2023-08-24T03:20:39;18.60;99.90
25923;DHT22;13725;51.170;4.442;2023-08-24T03:23:06;18.50;99.90
25923;DHT22;13725;51.170;4.442;2023-08-24T03:25:36;18.40;99.90
25923;DHT22;13725;51.170;4.442;2023-08-24T03:28:04;18.40;99.90
25923;DHT22;13725;51.170;4.442;2023-08-24T03:30:30;18.40;99.90
25923;DHT22;13725;51.170;4.442;2023-08-24T03:32:56;18.40;99.90
25923;DHT22;13725;51.170;4.442;2023-08-24T03:35:23;18.40;99.90
25923;DHT22;13725;51.170;4.442;2023-08-24T03:37:48;18.40;99.90
25923;DHT22;13725;51.170;4.442;2023-08-24T03:40:14;18.50;99.90
25923;DHT22;13725;51.170;4.442;2023-08-24T03:42:40;18.50;99.90
25923;DHT22;13725;51.170;4.442;2023-08-24T03:45:06;18.50;99.90
25923;DHT22;13725;51.170;4.442;2023-08-24T03:47:32;18.60;99.90
25923;DHT22;13725;51.170;4.442;2023-08-24T03:49:57;18.60;99.90
25923;DHT22;13725;51.170;4.442;2023-08-24T03:52:24;18.60;99.90
25923;DHT22;13725;51.170;4.442;2023-08-24T03:54:50;18.60;99.90
25923;DHT22;13725;51.170;4.442;2023-08-24T03:57:17;18.70;99.90
25923;DHT22;13725;51.170;4.442;2023-08-24T03:59:42;18.60;99.90
25923;DHT22;13725;51.170;4.442;2023-08-24T04:02:08;18.60;99.90
25923;DHT22;13725;51.170;4.442;2023-08-24T04:04:34;18.60;99.90
25923;DHT22;13725;51.170;4.442;2023-08-24T04:07:01;18.50;99.90
25923;DHT22;13725;51.170;4.442;2023-08-24T04:09:28;18.60;99.90
25923;DHT22;13725;51.170;4.442;2023-08-24T04:11:54;18.60;99.90
25923;DHT22;13725;51.170;4.442;2023-08-24T04:14:20;18.70;99.90
25923;DHT22;13725;51.170;4.442;2023-08-24T04:16:46;18.70;99.90
25923;DHT22;13725;51.170;4.442;2023-08-24T04:19:13;18.90;99.90
25923;DHT22;13725;51.170;4.442;2023-08-24T04:21:39;18.90;99.90
25923;DHT22;13725;51.170;4.442;2023-08-24T04:24:05;18.90;99.90
25923;DHT22;13725;51.170;4.442;2023-08-24T04:26:31;19.00;99.90
25923;DHT22;13725;51.170;4.442;2023-08-24T04:28:57;19.00;99.90
25923;DHT22;13725;51.170;4.442;2023-08-24T04:31:23;18.90;99.90
25923;DHT22;13725;51.170;4.442;2023-08-24T04:33:49;19.00;99.90
25923;DHT22;13725;51.170;4.442;2023-08-24T04:36:14;19.00;99.90
25923;DHT22;13725;51.170;4.442;2023-08-24T04:38:40;19.00;99.90
25923;DHT22;13725;51.170;4.442;2023-08-24T04:41:08;19.00;99.90
25923;DHT22;13725;51.170;4.442;2023-08-24T04:43:34;19.00;99.90
25923;DHT22;13725;51.170;4.442;2023-08-24T04:46:02;19.00;99.90
25923;DHT22;13725;51.170;4.442;2023-08-24T04:48:28;18.90;99.90
25923;DHT22;13725;51.170;4.442;2023-08-24T04:50:58;18.90;99.90
25923;DHT22;13725;51.170;4.442;2023-08-24T04:53:25;18.90;99.90
25923;DHT22;13725;51.170;4.442;2023-08-24T04:55:51;18.90;99.90
25923;DHT22;13725;51.170;4.442;2023-08-24T04:58:18;18.90;99.90
25923;DHT22;13725;51.170;4.442;2023-08-24T05:00:43;19.00;99.90
25923;DHT22;13725;51.170;4.442;2023-08-24T05:03:09;19.00;99.90
25923;DHT22;13725;51.170;4.442;2023-08-24T05:05:36;19.00;99.90
25923;DHT22;13725;51.170;4.442;2023-08-24T05:08:03;19.10;99.90
25923;DHT22;13725;51.170;4.442;2023-08-24T05:10:32;19.10;99.90
25923;DHT22;13725;51.170;4.442;2023-08-24T05:12:58;19.10;99.90
25923;DHT22;13725;51.170;4.442;2023-08-24T05:15:25;19.10;99.90
25923;DHT22;13725;51.170;4.442;2023-08-24T05:17:52;19.20;99.90
25923;DHT22;13725;51.170;4.442;2023-08-24T05:20:22;19.20;99.90
25923;DHT22;13725;51.170;4.442;2023-08-24T05:22:48;19.30;99.90
25923;DHT22;13725;51.170;4.442;2023-08-24T05:25:14;19.30;99.90
25923;DHT22;13725;51.170;4.442;2023-08-24T05:27:42;19.40;99.90
25923;DHT22;13725;51.170;4.442;2023-08-24T05:30:08;19.50;99.90
25923;DHT22;13725;51.170;4.442;2023-08-24T05:32:35;19.50;99.90
25923;DHT22;13725;51.170;4.442;2023-08-24T05:35:06;19.60;99.90
25923;DHT22;13725;51.170;4.442;2023-08-24T05:37:32;19.70;99.90
25923;DHT22;13725;51.170;4.442;2023-08-24T05:39:59;19.70;99.90
25923;DHT22;13725;51.170;4.442;2023-08-24T05:42:25;19.90;99.90
25923;DHT22;13725;51.170;4.442;2023-08-24T05:44:51;20.00;99.90
25923;DHT22;13725;51.170;4.442;2023-08-24T05:47:17;20.20;99.90
25923;DHT22;13725;51.170;4.442;2023-08-24T05:49:43;20.30;99.90
25923;DHT22;13725;51.170;4.442;2023-08-24T05:52:08;20.40;99.90
25923;DHT22;13725;51.170;4.442;2023-08-24T05:54:36;20.40;99.90
25923;DHT22;13725;51.170;4.442;2023-08-24T05:57:02;20.50;99.90
25923;DHT22;13725;51.170;4.442;2023-08-24T05:59:30;20.60;99.90
25923;DHT22;13725;51.170;4.442;2023-08-24T06:01:55;21.10;99.90
25923;DHT22;13725;51.170;4.442;2023-08-24T06:04:21;21.70;99.90
25923;DHT22;13725;51.170;4.442;2023-08-24T06:06:47;22.30;99.90
25923;DHT22;13725;51.170;4.442;2023-08-24T06:09:13;23.20;99.90
25923;DHT22;13725;51.170;4.442;2023-08-24T06:11:40;23.90;99.90
25923;DHT22;13725;51.170;4.442;2023-08-24T06:14:06;24.40;99.90
25923;DHT22;13725;51.170;4.442;2023-08-24T06:16:32;25.10;99.90
25923;DHT22;13725;51.170;4.442;2023-08-24T06:18:58;25.80;99.90
25923;DHT22;13725;51.170;4.442;2023-08-24T06:21:24;26.10;99.90
25923;DHT22;13725;51.170;4.442;2023-08-24T06:23:50;26.30;99.90
25923;DHT22;13725;51.170;4.442;2023-08-24T06:26:17;26.40;99.90
25923;DHT22;13725;51.170;4.442;2023-08-24T06:28:43;27.00;99.90
25923;DHT22;13725;51.170;4.442;2023-08-24T06:31:09;27.50;99.90
25923;DHT22;13725;51.170;4.442;2023-08-24T06:33:35;27.80;99.90
25923;DHT22;13725;51.170;4.442;2023-08-24T06:36:03;27.90;99.90
25923;DHT22;13725;51.170;4.442;2023-08-24T06:38:32;27.90;99.90
25923;DHT22;13725;51.170;4.442;2023-08-24T06:40:58;28.30;99.90
25923;DHT22;13725;51.170;4.442;2023-08-24T06:43:27;29.00;99.90
25923;DHT22;13725;51.170;4.442;2023-08-24T06:45:56;29.60;99.90
25923;DHT22;13725;51.170;4.442;2023-08-24T06:48:22;29.90;99.90
25923;DHT22;13725;51.170;4.442;2023-08-24T06:50:48;30.30;99.90
25923;DHT22;13725;51.170;4.442;2023-08-24T06:53:14;30.20;99.90
25923;DHT22;13725;51.170;4.442;2023-08-24T06:55:42;29.70;99.90
25923;DHT22;13725;51.170;4.442;2023-08-24T06:58:08;29.30;99.90
25923;DHT22;13725;51.170;4.442;2023-08-24T07:00:34;29.60;99.90
25923;DHT22;13725;51.170;4.442;2023-08-24T07:03:01;29.60;99.90
25923;DHT22;13725;51.170;4.442;2023-08-24T07:05:26;29.70;99.90
25923;DHT22;13725;51.170;4.442;2023-08-24T07:07:53;29.60;99.90
25923;DHT22;13725;51.170;4.442;2023-08-24T07:10:22;29.40;99.90
25923;DHT22;13725;51.170;4.442;2023-08-24T07:12:47;29.10;99.90
25923;DHT22;13725;51.170;4.442;2023-08-24T07:15:13;29.30;99.90
25923;DHT22;13725;51.170;4.442;2023-08-24T07:17:40;29.50;99.90
25923;DHT22;13725;51.170;4.442;2023-08-24T07:20:06;29.30;99.90
25923;DHT22;13725;51.170;4.442;2023-08-24T07:22:34;29.00;99.90
25923;DHT22;13725;51.170;4.442;2023-08-24T07:25:01;28.70;99.90
25923;DHT22;13725;51.170;4.442;2023-08-24T07:27:33;28.30;99.90
25923;DHT22;13725;51.170;4.442;2023-08-24T07:30:00;28.10;99.90
25923;DHT22;13725;51.170;4.442;2023-08-24T07:32:26;27.90;99.90
25923;DHT22;13725;51.170;4.442;2023-08-24T07:34:52;27.70;99.90
25923;DHT22;13725;51.170;4.442;2023-08-24T07:37:18;27.40;99.90
25923;DHT22;13725;51.170;4.442;2023-08-24T07:39:44;27.10;99.90
25923;DHT22;13725;51.170;4.442;2023-08-24T07:42:10;26.80;99.90
25923;DHT22;13725;51.170;4.442;2023-08-24T07:44:36;26.50;99.90
25923;DHT22;13725;51.170;4.442;2023-08-24T07:47:03;26.20;99.90
25923;DHT22;13725;51.170;4.442;2023-08-24T07:49:29;26.30;99.90
25923;DHT22;13725;51.170;4.442;2023-08-24T07:51:55;26.00;99.90
25923;DHT22;13725;51.170;4.442;2023-08-24T07:54:23;25.80;99.90
25923;DHT22;13725;51.170;4.442;2023-08-24T07:56:49;25.70;99.90
25923;DHT22;13725;51.170;4.442;2023-08-24T07:59:16;25.60;99.90
25923;DHT22;13725;51.170;4.442;2023-08-24T08:01:42;25.50;99.90
25923;DHT22;13725;51.170;4.442;2023-08-24T08:04:08;25.20;99.90
25923;DHT22;13725;51.170;4.442;2023-08-24T08:06:34;25.10;99.90
25923;DHT22;13725;51.170;4.442;2023-08-24T08:09:00;25.10;99.90
25923;DHT22;13725;51.170;4.442;2023-08-24T08:11:26;25.00;99.90
25923;DHT22;13725;51.170;4.442;2023-08-24T08:13:52;25.00;99.90
25923;DHT22;13725;51.170;4.442;2023-08-24T08:16:18;25.00;99.90
25923;DHT22;13725;51.170;4.442;2023-08-24T08:18:44;25.10;99.90
25923;DHT22;13725;51.170;4.442;2023-08-24T08:21:14;25.10;99.90
25923;DHT22;13725;51.170;4.442;2023-08-24T08:23:41;25.10;99.90
25923;DHT22;13725;51.170;4.442;2023-08-24T08:26:08;25.00;99.90
25923;DHT22;13725;51.170;4.442;2023-08-24T08:28:37;25.00;99.90
25923;DHT22;13725;51.170;4.442;2023-08-24T08:31:03;25.10;99.90
25923;DHT22;13725;51.170;4.442;2023-08-24T08:33:29;25.10;99.90
25923;DHT22;13725;51.170;4.442;2023-08-24T08:35:56;25.10;99.90
25923;DHT22;13725;51.170;4.442;2023-08-24T08:38:21;25.10;99.90
25923;DHT22;13725;51.170;4.442;2023-08-24T08:41:02;25.10;99.90
25923;DHT22;13725;51.170;4.442;2023-08-24T08:43:29;25.00;99.90
25923;DHT22;13725;51.170;4.442;2023-08-24T08:45:56;25.00;99.90
25923;DHT22;13725;51.170;4.442;2023-08-24T08:48:23;25.00;99.90
25923;DHT22;13725;51.170;4.442;2023-08-24T08:50:50;24.90;99.90
25923;DHT22;13725;51.170;4.442;2023-08-24T08:53:16;25.00;99.90
25923;DHT22;13725;51.170;4.442;2023-08-24T08:55:43;25.10;99.90
25923;DHT22;13725;51.170;4.442;2023-08-24T08:58:10;25.10;99.90
25923;DHT22;13725;51.170;4.442;2023-08-24T09:00:36;25.10;99.90
25923;DHT22;13725;51.170;4.442;2023-08-24T09:03:04;25.10;99.90
25923;DHT22;13725;51.170;4.442;2023-08-24T09:05:31;25.20;99.90
25923;DHT22;13725;51.170;4.442;2023-08-24T09:07:58;25.20;99.90
25923;DHT22;13725;51.170;4.442;2023-08-24T09:10:25;25.20;99.90
25923;DHT22;13725;51.170;4.442;2023-08-24T09:12:51;25.30;99.90
25923;DHT22;13725;51.170;4.442;2023-08-24T09:15:34;25.50;99.90
25923;DHT22;13725;51.170;4.442;2023-08-24T09:18:01;25.50;99.90
25923;DHT22;13725;51.170;4.442;2023-08-24T09:20:28;25.40;99.90
25923;DHT22;13725;51.170;4.442;2023-08-24T09:22:58;25.50;99.90
25923;DHT22;13725;51.170;4.442;2023-08-24T09:25:24;25.50;99.90
25923;DHT22;13725;51.170;4.442;2023-08-24T09:27:57;25.40;99.90
25923;DHT22;13725;51.170;4.442;2023-08-24T09:30:23;25.50;99.90
25923;DHT22;13725;51.170;4.442;2023-08-24T09:32:49;25.50;99.90
25923;DHT22;13725;51.170;4.442;2023-08-24T09:35:14;25.60;99.90
25923;DHT22;13725;51.170;4.442;2023-08-24T09:37:42;25.40;99.90
25923;DHT22;13725;51.170;4.442;2023-08-24T09:40:11;25.30;99.90
25923;DHT22;13725;51.170;4.442;2023-08-24T09:42:38;25.30;99.90
25923;DHT22;13725;51.170;4.442;2023-08-24T09:45:06;25.20;99.90
25923;DHT22;13725;51.170;4.442;2023-08-24T09:47:33;25.20;99.90
25923;DHT22;13725;51.170;4.442;2023-08-24T09:49:59;25.00;99.90
25923;DHT22;13725;51.170;4.442;2023-08-24T09:52:33;24.90;99.90
25923;DHT22;13725;51.170;4.442;2023-08-24T09:55:09;24.80;99.90
25923;DHT22;13725;51.170;4.442;2023-08-24T09:57:38;24.50;99.90
25923;DHT22;13725;51.170;4.442;2023-08-24T10:00:10;24.20;99.90
25923;DHT22;13725;51.170;4.442;2023-08-24T10:02:49;24.00;99.90
25923;DHT22;13725;51.170;4.442;2023-08-24T10:05:20;23.90;99.90
25923;DHT22;13725;51.170;4.442;2023-08-24T10:07:53;23.80;99.90
25923;DHT22;13725;51.170;4.442;2023-08-24T10:10:20;23.70;99.90
25923;DHT22;13725;51.170;4.442;2023-08-24T10:12:50;23.50;99.90
25923;DHT22;13725;51.170;4.442;2023-08-24T10:15:18;23.50;99.90
25923;DHT22;13725;51.170;4.442;2023-08-24T10:17:45;23.40;99.90
25923;DHT22;13725;51.170;4.442;2023-08-24T10:20:11;23.30;99.90
25923;DHT22;13725;51.170;4.442;2023-08-24T10:22:38;23.10;99.90
25923;DHT22;13725;51.170;4.442;2023-08-24T10:25:07;22.90;99.90
25923;DHT22;13725;51.170;4.442;2023-08-24T10:27:34;22.60;99.90
25923;DHT22;13725;51.170;4.442;2023-08-24T10:30:00;22.50;99.90
25923;DHT22;13725;51.170;4.442;2023-08-24T10:32:26;22.30;99.90
25923;DHT22;13725;51.170;4.442;2023-08-24T10:34:53;22.10;99.90
25923;DHT22;13725;51.170;4.442;2023-08-24T10:37:25;21.70;99.90
25923;DHT22;13725;51.170;4.442;2023-08-24T10:39:52;21.60;99.90
25923;DHT22;13725;51.170;4.442;2023-08-24T10:42:18;21.30;99.90
25923;DHT22;13725;51.170;4.442;2023-08-24T10:44:47;21.20;99.90
25923;DHT22;13725;51.170;4.442;2023-08-24T10:47:23;21.10;99.90
25923;DHT22;13725;51.170;4.442;2023-08-24T10:52:22;21.10;99.90
25923;DHT22;13725;51.170;4.442;2023-08-24T10:54:52;21.20;99.90
25923;DHT22;13725;51.170;4.442;2023-08-24T10:57:19;21.20;99.90
25923;DHT22;13725;51.170;4.442;2023-08-24T11:00:11;21.10;99.90
25923;DHT22;13725;51.170;4.442;2023-08-24T11:02:45;21.20;99.90
25923;DHT22;13725;51.170;4.442;2023-08-24T11:05:21;21.30;99.90
25923;DHT22;13725;51.170;4.442;2023-08-24T11:07:54;21.50;99.90
25923;DHT22;13725;51.170;4.442;2023-08-24T11:10:22;21.70;99.90
25923;DHT22;13725;51.170;4.442;2023-08-24T11:15:33;22.40;99.90
25923;DHT22;13725;51.170;4.442;2023-08-24T11:18:34;23.20;99.90
25923;DHT22;13725;51.170;4.442;2023-08-24T11:21:06;23.40;99.90
25923;DHT22;13725;51.170;4.442;2023-08-24T11:23:32;24.00;99.90
25923;DHT22;13725;51.170;4.442;2023-08-24T11:25:59;24.80;99.90
25923;DHT22;13725;51.170;4.442;2023-08-24T11:28:30;25.90;99.90
25923;DHT22;13725;51.170;4.442;2023-08-24T11:30:57;27.20;99.90
25923;DHT22;13725;51.170;4.442;2023-08-24T11:33:33;27.90;99.90
25923;DHT22;13725;51.170;4.442;2023-08-24T11:36:00;28.30;99.90
25923;DHT22;13725;51.170;4.442;2023-08-24T11:38:41;28.00;99.90
25923;DHT22;13725;51.170;4.442;2023-08-24T11:41:15;27.70;99.90
25923;DHT22;13725;51.170;4.442;2023-08-24T11:43:43;27.70;99.90
25923;DHT22;13725;51.170;4.442;2023-08-24T11:46:08;27.70;99.90
25923;DHT22;13725;51.170;4.442;2023-08-24T11:48:34;28.20;99.90
25923;DHT22;13725;51.170;4.442;2023-08-24T11:51:02;29.80;99.90
25923;DHT22;13725;51.170;4.442;2023-08-24T11:53:29;31.00;99.90
25923;DHT22;13725;51.170;4.442;2023-08-24T11:55:57;31.20;99.90
25923;DHT22;13725;51.170;4.442;2023-08-24T11:58:24;31.00;99.90
25923;DHT22;13725;51.170;4.442;2023-08-24T12:00:50;30.90;99.90
25923;DHT22;13725;51.170;4.442;2023-08-24T12:03:16;30.60;99.90
25923;DHT22;13725;51.170;4.442;2023-08-24T12:05:42;30.10;99.90
25923;DHT22;13725;51.170;4.442;2023-08-24T12:08:11;29.80;99.90
25923;DHT22;13725;51.170;4.442;2023-08-24T12:10:48;29.50;99.90
25923;DHT22;13725;51.170;4.442;2023-08-24T12:13:13;29.00;99.90
25923;DHT22;13725;51.170;4.442;2023-08-24T12:15:40;28.60;99.90
25923;DHT22;13725;51.170;4.442;2023-08-24T12:18:13;28.00;99.90
25923;DHT22;13725;51.170;4.442;2023-08-24T12:20:43;27.40;99.90
25923;DHT22;13725;51.170;4.442;2023-08-24T12:23:10;27.10;99.90
25923;DHT22;13725;51.170;4.442;2023-08-24T12:25:43;26.50;99.90
25923;DHT22;13725;51.170;4.442;2023-08-24T12:30:47;26.00;99.90
25923;DHT22;13725;51.170;4.442;2023-08-24T12:33:30;25.80;99.90
25923;DHT22;13725;51.170;4.442;2023-08-24T12:35:58;25.70;99.90
25923;DHT22;13725;51.170;4.442;2023-08-24T12:38:26;25.40;99.90
25923;DHT22;13725;51.170;4.442;2023-08-24T12:40:52;25.20;99.90
25923;DHT22;13725;51.170;4.442;2023-08-24T12:43:18;25.20;99.90
25923;DHT22;13725;51.170;4.442;2023-08-24T12:45:44;25.10;99.90
25923;DHT22;13725;51.170;4.442;2023-08-24T12:48:10;25.00;99.90
25923;DHT22;13725;51.170;4.442;2023-08-24T12:50:38;25.00;99.90
25923;DHT22;13725;51.170;4.442;2023-08-24T12:53:05;25.00;99.90
25923;DHT22;13725;51.170;4.442;2023-08-24T12:55:35;25.00;99.90
25923;DHT22;13725;51.170;4.442;2023-08-24T12:58:00;25.10;99.90
25923;DHT22;13725;51.170;4.442;2023-08-24T13:00:28;25.00;99.90
25923;DHT22;13725;51.170;4.442;2023-08-24T13:02:55;24.90;99.90
25923;DHT22;13725;51.170;4.442;2023-08-24T13:05:20;24.70;99.90
25923;DHT22;13725;51.170;4.442;2023-08-24T13:07:46;24.50;99.90
25923;DHT22;13725;51.170;4.442;2023-08-24T13:10:12;24.30;99.90
25923;DHT22;13725;51.170;4.442;2023-08-24T13:12:38;24.20;99.90
25923;DHT22;13725;51.170;4.442;2023-08-24T13:15:05;24.10;99.90
25923;DHT22;13725;51.170;4.442;2023-08-24T13:17:31;23.90;99.90
25923;DHT22;13725;51.170;4.442;2023-08-24T13:19:56;23.90;99.90
25923;DHT22;13725;51.170;4.442;2023-08-24T13:22:23;23.80;99.90
25923;DHT22;13725;51.170;4.442;2023-08-24T13:24:48;23.80;99.90
25923;DHT22;13725;51.170;4.442;2023-08-24T13:27:14;23.60;99.90
25923;DHT22;13725;51.170;4.442;2023-08-24T13:29:41;23.60;99.90
25923;DHT22;13725;51.170;4.442;2023-08-24T13:32:06;23.70;99.90
25923;DHT22;13725;51.170;4.442;2023-08-24T13:34:34;23.70;99.90
25923;DHT22;13725;51.170;4.442;2023-08-24T13:37:00;23.80;99.90
25923;DHT22;13725;51.170;4.442;2023-08-24T13:39:26;23.90;99.90
25923;DHT22;13725;51.170;4.442;2023-08-24T13:41:55;23.90;99.90
25923;DHT22;13725;51.170;4.442;2023-08-24T13:44:21;23.90;99.90
25923;DHT22;13725;51.170;4.442;2023-08-24T13:46:47;24.00;99.90
25923;DHT22;13725;51.170;4.442;2023-08-24T13:49:12;24.10;99.90
25923;DHT22;13725;51.170;4.442;2023-08-24T13:51:38;24.20;99.90
25923;DHT22;13725;51.170;4.442;2023-08-24T13:54:14;24.20;99.90
25923;DHT22;13725;51.170;4.442;2023-08-24T13:56:41;24.10;99.90
25923;DHT22;13725;51.170;4.442;2023-08-24T13:59:07;24.10;99.90
25923;DHT22;13725;51.170;4.442;2023-08-24T14:01:33;24.10;99.90
25923;DHT22;13725;51.170;4.442;2023-08-24T14:03:58;24.20;99.90
25923;DHT22;13725;51.170;4.442;2023-08-24T14:06:24;24.30;99.90
25923;DHT22;13725;51.170;4.442;2023-08-24T14:08:50;24.50;99.90
25923;DHT22;13725;51.170;4.442;2023-08-24T14:11:16;24.70;99.90
25923;DHT22;13725;51.170;4.442;2023-08-24T14:13:42;24.90;99.90
25923;DHT22;13725;51.170;4.442;2023-08-24T14:16:08;25.00;99.90
25923;DHT22;13725;51.170;4.442;2023-08-24T14:18:33;25.00;99.90
25923;DHT22;13725;51.170;4.442;2023-08-24T14:21:03;25.00;99.90
25923;DHT22;13725;51.170;4.442;2023-08-24T14:23:28;25.10;99.90
25923;DHT22;13725;51.170;4.442;2023-08-24T14:25:55;25.40;99.90
25923;DHT22;13725;51.170;4.442;2023-08-24T14:28:22;25.70;99.90
25923;DHT22;13725;51.170;4.442;2023-08-24T14:30:49;26.00;99.90
25923;DHT22;13725;51.170;4.442;2023-08-24T14:33:15;26.10;99.90
25923;DHT22;13725;51.170;4.442;2023-08-24T14:35:41;26.20;99.90
25923;DHT22;13725;51.170;4.442;2023-08-24T14:38:07;26.30;99.90
25923;DHT22;13725;51.170;4.442;2023-08-24T14:40:34;26.00;99.90
25923;DHT22;13725;51.170;4.442;2023-08-24T14:43:00;25.90;99.90
25923;DHT22;13725;51.170;4.442;2023-08-24T14:45:25;25.80;99.90
25923;DHT22;13725;51.170;4.442;2023-08-24T14:47:51;25.90;99.90
25923;DHT22;13725;51.170;4.442;2023-08-24T14:50:17;26.00;99.90
25923;DHT22;13725;51.170;4.442;2023-08-24T14:52:43;25.80;99.90
25923;DHT22;13725;51.170;4.442;2023-08-24T14:55:08;25.80;99.90
25923;DHT22;13725;51.170;4.442;2023-08-24T14:57:38;25.70;99.90
25923;DHT22;13725;51.170;4.442;2023-08-24T15:00:04;25.60;99.90
25923;DHT22;13725;51.170;4.442;2023-08-24T15:02:31;25.40;99.90
25923;DHT22;13725;51.170;4.442;2023-08-24T15:04:58;25.40;99.90
25923;DHT22;13725;51.170;4.442;2023-08-24T15:07:23;25.40;99.90
25923;DHT22;13725;51.170;4.442;2023-08-24T15:09:50;25.50;99.90
25923;DHT22;13725;51.170;4.442;2023-08-24T15:12:16;25.60;99.90
25923;DHT22;13725;51.170;4.442;2023-08-24T15:14:59;25.70;99.90
25923;DHT22;13725;51.170;4.442;2023-08-24T15:17:26;25.90;99.90
25923;DHT22;13725;51.170;4.442;2023-08-24T15:19:54;26.10;99.90
25923;DHT22;13725;51.170;4.442;2023-08-24T15:22:20;26.00;99.90
25923;DHT22;13725;51.170;4.442;2023-08-24T15:24:45;26.00;99.90
25923;DHT22;13725;51.170;4.442;2023-08-24T15:27:11;26.10;99.90
25923;DHT22;13725;51.170;4.442;2023-08-24T15:29:37;26.20;99.90
25923;DHT22;13725;51.170;4.442;2023-08-24T15:32:03;26.40;99.90
25923;DHT22;13725;51.170;4.442;2023-08-24T15:34:29;26.40;99.90
25923;DHT22;13725;51.170;4.442;2023-08-24T15:36:55;26.40;99.90
25923;DHT22;13725;51.170;4.442;2023-08-24T15:39:21;26.40;99.90
25923;DHT22;13725;51.170;4.442;2023-08-24T15:41:47;26.50;99.90
25923;DHT22;13725;51.170;4.442;2023-08-24T15:44:13;26.60;99.90
25923;DHT22;13725;51.170;4.442;2023-08-24T15:46:38;26.60;99.90
25923;DHT22;13725;51.170;4.442;2023-08-24T15:49:04;26.60;99.90